Time;durP1;ratioP1;P1;durP2;ratioP2;P2;SDS_P1;SDS_P2;PMS_P1;PMS_P2;Temp;Humidity;BMP_temperature;BMP_pressure;BME280_temperature;BME280_humidity;BME280_pressure;Samples;Min_cycle;Max_cycle;Signal;HPM_P1;HPM_P2
2023/09/21 00:01:23;;;;;;;4.35;2.70;;;18.80;99.90;;;;;;5074677;28;20551;-26
2023/09/21 00:03:49;;;;;;;6.72;2.75;;;18.80;99.90;;;;;;5068537;28;20116;-24
2023/09/21 00:06:17;;;;;;;4.90;2.55;;;18.70;99.90;;;;;;5069719;28;20465;-25
2023/09/21 00:08:48;;;;;;;3.55;2.58;;;18.70;99.90;;;;;;5074146;28;20449;-25
2023/09/21 00:11:14;;;;;;;5.65;2.33;;;18.70;99.90;;;;;;5074526;28;20041;-25
2023/09/21 00:13:40;;;;;;;3.53;2.67;;;18.70;99.90;;;;;;5060267;28;20057;-24
2023/09/21 00:16:14;;;;;;;4.25;2.70;;;18.70;99.90;;;;;;5078197;28;20035;-24
2023/09/21 00:18:44;;;;;;;3.80;2.50;;;18.70;99.90;;;;;;5071226;28;20037;-24
2023/09/21 00:21:12;;;;;;;2.90;2.38;;;18.80;99.90;;;;;;5077752;28;20049;-24
2023/09/21 00:23:38;;;;;;;4.28;2.55;;;18.80;99.90;;;;;;5070804;28;20049;-25
2023/09/21 00:26:04;;;;;;;3.60;2.20;;;18.90;99.90;;;;;;5077359;28;20040;-26
2023/09/21 00:28:30;;;;;;;4.18;2.40;;;19.00;99.90;;;;;;5073249;28;20063;-26
2023/09/21 00:30:57;;;;;;;3.80;2.55;;;18.90;99.90;;;;;;5071170;28;20123;-25
2023/09/21 00:33:27;;;;;;;2.90;2.30;;;19.00;99.90;;;;;;5076103;28;20041;-25
2023/09/21 00:35:54;;;;;;;2.95;2.00;;;19.00;99.90;;;;;;5070995;28;20487;-25
2023/09/21 00:38:20;;;;;;;4.68;2.53;;;19.00;99.90;;;;;;5074505;28;20051;-25
2023/09/21 00:40:48;;;;;;;6.28;2.83;;;19.00;99.90;;;;;;5073433;28;20028;-25
2023/09/21 00:43:21;;;;;;;2.60;2.33;;;19.00;99.90;;;;;;5079432;28;20040;-25
2023/09/21 00:45:51;;;;;;;4.03;2.08;;;18.90;99.90;;;;;;5071770;28;20044;-25
2023/09/21 00:48:25;;;;;;;3.53;2.47;;;18.90;99.90;;;;;;5079495;28;20410;-25
2023/09/21 00:50:56;;;;;;;5.13;2.50;;;18.90;99.90;;;;;;5069089;28;20036;-25
2023/09/21 00:53:23;;;;;;;4.00;2.47;;;18.90;99.90;;;;;;5081053;28;20036;-25
2023/09/21 00:55:52;;;;;;;2.83;2.45;;;18.80;99.90;;;;;;5070068;28;20036;-25
2023/09/21 00:58:21;;;;;;;4.00;2.65;;;18.80;99.90;;;;;;5070115;28;20036;-25
2023/09/21 01:00:48;;;;;;;2.95;2.38;;;18.80;99.90;;;;;;5078762;28;20037;-25
2023/09/21 01:03:14;;;;;;;3.15;2.13;;;18.70;99.90;;;;;;5073076;28;20396;-25
2023/09/21 01:05:41;;;;;;;3.45;2.10;;;18.70;99.90;;;;;;5073884;28;20036;-25
2023/09/21 01:08:10;;;;;;;4.85;2.30;;;18.70;99.90;;;;;;5079491;28;20395;-25
2023/09/21 01:10:41;;;;;;;6.90;2.38;;;18.60;99.90;;;;;;5078275;28;20534;-25
2023/09/21 01:13:07;;;;;;;3.13;2.25;;;18.60;99.90;;;;;;5070770;28;20047;-25
2023/09/21 01:15:34;;;;;;;3.72;2.33;;;18.60;99.90;;;;;;5072933;28;20041;-25
2023/09/21 01:18:00;;;;;;;3.92;2.47;;;18.60;99.90;;;;;;5072389;28;20554;-25
2023/09/21 01:20:32;;;;;;;4.22;2.13;;;18.70;99.90;;;;;;5073176;28;20041;-25
2023/09/21 01:23:11;;;;;;;4.00;2.13;;;18.70;99.90;;;;;;5055663;28;20111;-25
2023/09/21 01:25:41;;;;;;;2.58;2.00;;;18.60;99.90;;;;;;5072866;28;20079;-25
2023/09/21 01:28:09;;;;;;;3.88;2.75;;;18.60;99.90;;;;;;5073162;28;20119;-25
2023/09/21 01:30:38;;;;;;;3.53;2.28;;;18.50;99.90;;;;;;5073562;28;20702;-25
2023/09/21 01:33:15;;;;;;;4.30;2.30;;;18.50;99.90;;;;;;5071295;28;20151;-25
2023/09/21 01:35:43;;;;;;;4.95;2.17;;;18.50;99.90;;;;;;5073557;28;20530;-25
2023/09/21 01:38:09;;;;;;;3.47;2.13;;;18.40;99.90;;;;;;5055924;28;20043;-25
2023/09/21 01:40:40;;;;;;;4.13;2.42;;;18.50;99.90;;;;;;5070593;28;20071;-25
2023/09/21 01:43:10;;;;;;;2.40;2.15;;;18.50;99.90;;;;;;5072291;28;20037;-25
2023/09/21 01:45:40;;;;;;;3.20;2.17;;;18.50;99.90;;;;;;5076152;28;20094;-25
2023/09/21 01:48:09;;;;;;;2.72;2.05;;;18.50;99.90;;;;;;5051862;28;20044;-24
2023/09/21 01:50:46;;;;;;;4.88;2.72;;;18.50;99.90;;;;;;5073334;28;20416;-25
2023/09/21 01:53:12;;;;;;;3.20;2.28;;;18.50;99.90;;;;;;5073254;28;20122;-25
2023/09/21 01:55:39;;;;;;;2.45;1.70;;;18.60;99.90;;;;;;5074493;28;20044;-25
2023/09/21 01:58:06;;;;;;;2.95;2.13;;;18.70;99.90;;;;;;5056923;28;20315;-25
2023/09/21 02:00:35;;;;;;;2.80;2.30;;;18.70;99.90;;;;;;5072583;28;20044;-26
2023/09/21 02:03:06;;;;;;;6.10;2.28;;;18.70;99.90;;;;;;5077195;28;20399;-25
2023/09/21 02:05:32;;;;;;;2.05;1.85;;;18.70;99.90;;;;;;5070941;28;20055;-25
2023/09/21 02:07:58;;;;;;;4.50;1.98;;;18.70;99.90;;;;;;5073580;28;20032;-25
2023/09/21 02:10:24;;;;;;;2.35;1.95;;;18.70;99.90;;;;;;5072948;28;20119;-25
2023/09/21 02:12:58;;;;;;;3.08;1.85;;;18.70;99.90;;;;;;5077740;28;20380;-25
2023/09/21 02:15:25;;;;;;;;;;;18.70;99.90;;;;;;5071787;28;20041;-25
2023/09/21 02:17:55;;;;;;;3.55;1.90;;;18.70;99.90;;;;;;5073382;28;19916;-25
2023/09/21 02:20:22;;;;;;;3.45;1.88;;;18.70;99.90;;;;;;5071791;28;20040;-25
2023/09/21 02:22:52;;;;;;;3.03;1.85;;;18.80;99.90;;;;;;5076783;28;20033;-25
2023/09/21 02:25:19;;;;;;;4.18;2.40;;;18.80;99.90;;;;;;5076085;28;20122;-25
2023/09/21 02:27:49;;;;;;;2.78;1.75;;;18.80;99.90;;;;;;5073357;28;20047;-25
2023/09/21 02:30:17;;;;;;;4.13;2.22;;;18.80;99.90;;;;;;5076520;28;20039;-25
2023/09/21 02:32:45;;;;;;;2.30;1.83;;;18.80;99.90;;;;;;5073088;28;20506;-25
2023/09/21 02:35:15;;;;;;;3.72;2.30;;;18.80;99.90;;;;;;5075180;28;20088;-25
2023/09/21 02:37:45;;;;;;;2.42;2.22;;;18.80;99.90;;;;;;5071564;28;20107;-25
2023/09/21 02:40:14;;;;;;;3.35;2.10;;;18.80;99.90;;;;;;5079001;28;20037;-25
2023/09/21 02:42:41;;;;;;;4.10;2.55;;;18.80;99.90;;;;;;5074832;28;20028;-25
2023/09/21 02:45:10;;;;;;;3.35;2.15;;;18.80;99.90;;;;;;5080965;28;20031;-25
2023/09/21 02:47:37;;;;;;;4.22;2.75;;;18.80;99.90;;;;;;5071549;28;20049;-26
2023/09/21 02:50:15;;;;;;;4.07;2.28;;;18.80;99.90;;;;;;5066828;28;20056;-25
2023/09/21 02:52:47;;;;;;;2.60;1.88;;;18.80;99.90;;;;;;5076072;28;20500;-25
2023/09/21 02:55:20;;;;;;;3.13;2.35;;;18.80;99.90;;;;;;5068149;28;20040;-25
2023/09/21 02:57:54;;;;;;;3.10;2.22;;;18.80;99.90;;;;;;5058191;28;20048;-25
2023/09/21 03:00:21;;;;;;;2.78;2.30;;;18.80;99.90;;;;;;5072451;28;20040;-25
2023/09/21 03:02:50;;;;;;;2.72;1.90;;;18.80;99.90;;;;;;5077391;28;20029;-25
2023/09/21 03:05:17;;;;;;;3.20;2.53;;;18.80;99.90;;;;;;5070261;28;20048;-25
2023/09/21 03:07:44;;;;;;;3.75;2.28;;;18.70;99.90;;;;;;5075734;28;20121;-25
2023/09/21 03:10:11;;;;;;;2.45;2.20;;;18.70;99.90;;;;;;5070615;28;20111;-25
2023/09/21 03:12:37;;;;;;;3.03;2.00;;;18.70;99.90;;;;;;5071223;28;20044;-25
2023/09/21 03:15:07;;;;;;;2.65;2.10;;;18.70;99.90;;;;;;5073544;28;20036;-25
2023/09/21 03:17:36;;;;;;;3.38;2.35;;;18.70;99.90;;;;;;5071250;28;20040;-25
2023/09/21 03:20:09;;;;;;;2.13;1.92;;;18.70;99.90;;;;;;5053004;28;20040;-25
2023/09/21 03:22:35;;;;;;;1.95;1.77;;;18.60;99.90;;;;;;5052199;28;20047;-26
2023/09/21 03:25:01;;;;;;;3.55;2.20;;;18.60;99.90;;;;;;5072128;28;20503;-25
2023/09/21 03:27:26;;;;;;;3.17;2.20;;;18.60;99.90;;;;;;5068604;28;20070;-26
2023/09/21 03:29:53;;;;;;;3.70;2.38;;;18.50;99.90;;;;;;5073531;28;20036;-25
2023/09/21 03:32:18;;;;;;;2.67;2.13;;;18.50;99.90;;;;;;5072961;28;20043;-25
2023/09/21 03:34:45;;;;;;;2.33;2.10;;;18.50;99.90;;;;;;5073871;28;20399;-25
2023/09/21 03:37:12;;;;;;;4.45;2.50;;;18.50;99.90;;;;;;5080874;28;20085;-25
2023/09/21 03:39:38;;;;;;;4.10;2.63;;;18.40;99.90;;;;;;5074788;28;20033;-25
2023/09/21 03:42:14;;;;;;;3.47;1.88;;;18.40;99.90;;;;;;5127699;22;20047;-87
2023/09/21 03:44:45;;;;;;;2.58;2.35;;;18.40;99.90;;;;;;5089368;27;20027;-87
2023/09/21 03:47:17;;;;;;;3.67;1.85;;;18.30;99.90;;;;;;5075077;28;20063;-87
2023/09/21 03:49:49;;;;;;;4.68;2.10;;;18.30;99.90;;;;;;5076532;28;20395;-87
2023/09/21 03:52:44;;;;;;;2.70;2.30;;;18.30;99.90;;;;;;5065743;28;20043;-86
2023/09/21 03:55:16;;;;;;;2.67;2.30;;;18.30;99.90;;;;;;5071786;28;20028;-87
2023/09/21 03:57:50;;;;;;;4.55;2.10;;;18.30;99.90;;;;;;5064107;28;20071;-87
2023/09/21 04:03:03;;;;;;;6.05;2.13;;;18.20;99.90;;;;;;5071234;28;20074;-87
2023/09/21 04:05:33;;;;;;;2.70;1.95;;;18.10;99.90;;;;;;5057377;28;20123;-87
2023/09/21 04:08:13;;;;;;;2.50;2.17;;;18.20;99.90;;;;;;5074822;28;20497;-86
2023/09/21 04:10:47;;;;;;;3.60;2.25;;;18.10;99.90;;;;;;5092161;28;20044;-87
2023/09/21 04:13:18;;;;;;;3.88;2.40;;;18.10;99.90;;;;;;5051714;28;20046;-86
2023/09/21 04:15:47;;;;;;;3.22;2.05;;;18.20;99.90;;;;;;5058612;28;20050;-87
2023/09/21 04:18:15;;;;;;;4.57;2.13;;;18.10;99.90;;;;;;5079130;28;20115;-87
2023/09/21 04:20:44;;;;;;;3.75;2.20;;;18.10;99.90;;;;;;5067025;28;20055;-87
2023/09/21 04:23:27;;;;;;;3.55;2.45;;;18.20;99.90;;;;;;5080688;28;20032;-87
2023/09/21 04:25:55;;;;;;;3.47;2.47;;;18.30;99.90;;;;;;5107923;28;20031;-87
2023/09/21 04:28:25;;;;;;;2.72;1.98;;;18.30;99.90;;;;;;5078138;28;20043;-87
2023/09/21 04:30:54;;;;;;;2.75;2.38;;;18.30;99.90;;;;;;5097617;28;20032;-87
2023/09/21 04:33:19;;;;;;;2.65;2.28;;;18.30;99.90;;;;;;5057716;28;20034;-87
2023/09/21 04:35:53;;;;;;;3.40;2.20;;;18.30;99.90;;;;;;5087289;28;20021;-87
2023/09/21 04:38:22;;;;;;;4.18;2.30;;;18.30;99.90;;;;;;5082565;28;20097;-87
2023/09/21 04:40:51;;;;;;;2.60;2.17;;;18.30;99.90;;;;;;5085199;28;20040;-87
2023/09/21 04:43:28;;;;;;;7.63;2.50;;;18.40;99.90;;;;;;5082115;28;20031;-87
2023/09/21 04:46:02;;;;;;;2.53;2.25;;;18.30;99.90;;;;;;5083089;28;20036;-87
2023/09/21 04:48:30;;;;;;;3.92;2.45;;;18.20;99.90;;;;;;5075996;28;20052;-87
2023/09/21 04:51:17;;;;;;;2.50;2.30;;;18.20;99.90;;;;;;5060631;28;20028;-87
2023/09/21 04:53:54;;;;;;;2.72;2.40;;;18.30;99.90;;;;;;5059271;28;20044;-88
2023/09/21 04:56:26;;;;;;;2.90;2.60;;;18.30;99.90;;;;;;5098877;28;20417;-87
2023/09/21 04:58:57;;;;;;;3.85;2.47;;;18.20;99.90;;;;;;5060281;28;20050;-87
2023/09/21 05:01:36;;;;;;;3.63;2.47;;;18.20;99.90;;;;;;5057686;28;20067;-87
2023/09/21 05:04:08;;;;;;;3.33;2.03;;;18.20;99.90;;;;;;5063918;28;20036;-87
2023/09/21 05:06:51;;;;;;;3.40;2.20;;;18.10;99.90;;;;;;5079355;28;20123;-88
2023/09/21 05:09:29;;;;;;;3.08;2.15;;;18.10;99.90;;;;;;5058306;28;20533;-87
2023/09/21 05:12:14;;;;;;;3.00;2.08;;;18.10;99.90;;;;;;5071812;28;20048;-88
2023/09/21 05:14:57;;;;;;;4.57;2.40;;;18.10;99.90;;;;;;5053170;28;20048;-88
2023/09/21 05:21:29;;;;;;;3.30;2.30;;;18.10;99.90;;;;;;5009746;28;20038;-88
2023/09/21 05:35:24;;;;;;;2.92;2.40;;;18.20;99.90;;;;;;4943611;22;20062;-32
2023/09/21 05:37:50;;;;;;;3.17;2.35;;;18.30;99.90;;;;;;5006224;28;20041;-33
2023/09/21 05:40:16;;;;;;;4.15;2.20;;;18.30;99.90;;;;;;5048704;28;20032;-34
2023/09/21 05:42:44;;;;;;;5.22;2.70;;;18.30;99.90;;;;;;5051260;28;20033;-34
2023/09/21 05:45:10;;;;;;;4.13;2.38;;;18.40;99.90;;;;;;5046084;28;20044;-34
2023/09/21 05:47:36;;;;;;;3.67;2.50;;;18.50;99.90;;;;;;5048482;28;20033;-34
2023/09/21 05:50:05;;;;;;;6.43;2.53;;;18.50;99.90;;;;;;5048559;28;20107;-34
2023/09/21 05:52:33;;;;;;;5.15;2.35;;;18.60;99.90;;;;;;5070057;28;20424;-34
2023/09/21 05:55:00;;;;;;;2.63;2.17;;;18.70;99.90;;;;;;5053244;28;20502;-35
2023/09/21 05:57:27;;;;;;;4.28;2.60;;;18.80;99.90;;;;;;5057424;28;20095;-34
2023/09/21 05:59:53;;;;;;;3.55;2.15;;;18.90;99.90;;;;;;5062180;28;20111;-34
2023/09/21 06:02:19;;;;;;;4.97;2.72;;;19.00;99.90;;;;;;5062972;28;20043;-34
2023/09/21 06:04:46;;;;;;;3.08;2.20;;;19.00;99.90;;;;;;5061310;28;20064;-33
2023/09/21 06:07:12;;;;;;;2.67;1.83;;;19.00;99.90;;;;;;5062343;28;20573;-35
2023/09/21 06:09:38;;;;;;;4.07;2.50;;;19.10;99.90;;;;;;5075376;28;20052;-34
2023/09/21 06:12:07;;;;;;;3.72;2.67;;;19.20;99.90;;;;;;5060396;28;20029;-33
2023/09/21 06:14:36;;;;;;;5.32;2.20;;;19.20;99.90;;;;;;5064472;28;20396;-34
2023/09/21 06:17:02;;;;;;;5.53;2.30;;;19.30;99.90;;;;;;5058280;28;20095;-34
2023/09/21 06:19:27;;;;;;;4.05;2.10;;;19.30;99.90;;;;;;5056594;28;20045;-33
2023/09/21 06:21:57;;;;;;;3.75;2.63;;;19.40;99.90;;;;;;5062510;28;20041;-34
2023/09/21 06:24:26;;;;;;;3.65;2.20;;;19.40;99.90;;;;;;5053106;28;20092;-36
2023/09/21 06:26:52;;;;;;;3.35;2.22;;;19.40;99.90;;;;;;5057770;28;20071;-34
2023/09/21 06:29:19;;;;;;;3.92;2.30;;;19.50;99.90;;;;;;5062023;28;20518;-33
2023/09/21 06:31:48;;;;;;;4.00;2.33;;;19.50;99.90;;;;;;5071264;28;20036;-34
2023/09/21 06:34:18;;;;;;;2.88;2.38;;;19.60;99.90;;;;;;5056989;28;20041;-33
2023/09/21 06:36:44;;;;;;;4.60;2.63;;;19.60;99.90;;;;;;5060272;28;20119;-34
2023/09/21 06:39:11;;;;;;;2.53;2.22;;;19.60;99.90;;;;;;5056354;28;20041;-33
2023/09/21 06:41:37;;;;;;;2.97;2.47;;;19.60;99.90;;;;;;5057641;28;20037;-33
2023/09/21 06:44:03;;;;;;;3.30;2.13;;;19.50;99.90;;;;;;5058759;28;20032;-34
2023/09/21 06:46:29;;;;;;;3.30;2.58;;;19.50;99.90;;;;;;5054281;28;20083;-33
2023/09/21 06:48:55;;;;;;;3.97;2.40;;;19.60;99.90;;;;;;5057960;28;20041;-33
2023/09/21 06:51:21;;;;;;;3.15;2.20;;;19.50;99.90;;;;;;5055863;28;20029;-35
2023/09/21 06:53:48;;;;;;;2.55;2.17;;;19.60;99.90;;;;;;5058219;28;21488;-34
2023/09/21 06:56:14;;;;;;;5.20;2.47;;;19.60;99.90;;;;;;5055132;28;20381;-33
2023/09/21 06:58:40;;;;;;;3.45;2.60;;;19.60;99.90;;;;;;5058386;28;20040;-33
2023/09/21 07:01:05;;;;;;;3.72;2.53;;;19.60;99.90;;;;;;5053137;28;20028;-33
2023/09/21 07:03:32;;;;;;;4.78;2.22;;;19.60;99.90;;;;;;5056516;28;20095;-33
2023/09/21 07:05:58;;;;;;;3.72;2.22;;;19.60;99.90;;;;;;5064424;28;20105;-35
2023/09/21 07:08:23;;;;;;;2.75;2.15;;;19.60;99.90;;;;;;5050840;28;20045;-34
2023/09/21 07:10:49;;;;;;;3.83;2.83;;;19.70;99.90;;;;;;5054301;28;20048;-33
2023/09/21 07:13:15;;;;;;;2.50;2.28;;;19.60;99.90;;;;;;5051731;28;20506;-34
2023/09/21 07:15:41;;;;;;;2.70;2.50;;;19.70;99.90;;;;;;5055122;28;20099;-33
2023/09/21 07:18:09;;;;;;;3.63;2.33;;;19.70;99.90;;;;;;5054756;28;20192;-34
2023/09/21 07:20:35;;;;;;;4.32;2.60;;;19.80;99.90;;;;;;5065401;28;20127;-34
2023/09/21 07:23:01;;;;;;;2.85;2.47;;;19.80;99.90;;;;;;5049987;28;20051;-33
2023/09/21 07:25:30;;;;;;;4.18;2.15;;;19.80;99.90;;;;;;5052326;28;20041;-34
2023/09/21 07:27:57;;;;;;;5.97;2.53;;;19.80;99.90;;;;;;5056548;28;20055;-34
2023/09/21 07:30:25;;;;;;;2.58;2.38;;;19.80;99.90;;;;;;5038745;28;20087;-34
2023/09/21 07:32:51;;;;;;;3.08;2.45;;;19.80;99.90;;;;;;5056234;28;20037;-33
2023/09/21 07:35:19;;;;;;;3.58;2.47;;;19.90;99.90;;;;;;5052163;28;20171;-33
2023/09/21 07:37:46;;;;;;;3.88;2.28;;;19.90;99.90;;;;;;5056328;28;20496;-34
2023/09/21 07:40:16;;;;;;;4.65;2.60;;;20.00;99.90;;;;;;5057724;28;20457;-33
2023/09/21 07:42:45;;;;;;;4.30;2.55;;;20.00;99.90;;;;;;5053414;28;20086;-33
2023/09/21 07:45:12;;;;;;;4.13;2.67;;;20.10;99.90;;;;;;5051839;28;20037;-34
2023/09/21 07:47:38;;;;;;;5.25;2.65;;;20.20;99.90;;;;;;5055827;28;20056;-34
2023/09/21 07:50:05;;;;;;;5.75;2.63;;;20.20;99.90;;;;;;5056571;28;20072;-34
2023/09/21 07:52:32;;;;;;;3.45;2.65;;;20.30;99.90;;;;;;5060789;28;20102;-34
2023/09/21 07:55:02;;;;;;;3.33;2.17;;;20.30;99.90;;;;;;5055561;28;20094;-33
2023/09/21 07:57:34;;;;;;;3.10;2.35;;;20.40;99.90;;;;;;5049491;28;20041;-33
2023/09/21 08:00:00;;;;;;;3.17;2.47;;;20.40;99.90;;;;;;5057126;28;20041;-34
2023/09/21 08:02:29;;;;;;;3.85;2.50;;;20.30;99.90;;;;;;5057353;28;20041;-34
2023/09/21 08:04:55;;;;;;;3.00;2.70;;;20.30;99.90;;;;;;5054144;28;20052;-33
2023/09/21 08:07:26;;;;;;;4.15;2.67;;;20.20;99.90;;;;;;5055165;28;20408;-33
2023/09/21 08:09:54;;;;;;;3.08;2.78;;;20.20;99.90;;;;;;5053984;28;20459;-34
2023/09/21 08:12:24;;;;;;;4.75;3.00;;;20.10;99.90;;;;;;5057048;28;20037;-33
2023/09/21 08:14:50;;;;;;;4.07;3.05;;;20.10;99.90;;;;;;5050628;28;20118;-33
2023/09/21 08:17:17;;;;;;;4.80;2.80;;;20.00;99.90;;;;;;5060257;28;20045;-34
2023/09/21 08:19:43;;;;;;;4.05;2.47;;;19.90;99.90;;;;;;5054915;28;20036;-33
2023/09/21 08:22:09;;;;;;;5.18;2.70;;;19.90;99.90;;;;;;5056035;28;20043;-34
2023/09/21 08:24:36;;;;;;;3.53;2.80;;;19.80;99.90;;;;;;5051150;28;20041;-34
2023/09/21 08:27:03;;;;;;;3.72;3.20;;;19.80;99.90;;;;;;5051945;28;20032;-32
2023/09/21 08:29:29;;;;;;;4.18;2.92;;;19.80;99.90;;;;;;5055471;28;20518;-33
2023/09/21 08:31:55;;;;;;;3.38;3.00;;;19.80;99.90;;;;;;5062371;28;20048;-34
2023/09/21 08:34:21;;;;;;;3.88;2.95;;;19.80;99.90;;;;;;5056981;28;20045;-33
2023/09/21 08:36:47;;;;;;;3.50;3.13;;;19.80;99.90;;;;;;5055123;28;20479;-33
2023/09/21 08:39:13;;;;;;;4.32;3.25;;;19.70;99.90;;;;;;5048417;28;20123;-34
2023/09/21 08:41:43;;;;;;;4.13;3.10;;;19.80;99.90;;;;;;5038320;28;20498;-34
2023/09/21 08:44:10;;;;;;;3.50;2.70;;;19.80;99.90;;;;;;5054146;28;20033;-33
2023/09/21 08:46:38;;;;;;;3.17;2.88;;;19.70;99.90;;;;;;5052306;28;20072;-34
2023/09/21 08:49:06;;;;;;;3.83;3.40;;;19.70;99.90;;;;;;5047803;28;20060;-33
2023/09/21 08:51:33;;;;;;;3.58;2.97;;;19.60;99.90;;;;;;5052172;28;20513;-33
2023/09/21 08:53:59;;;;;;;3.95;2.65;;;19.60;99.90;;;;;;5050874;28;20032;-35
2023/09/21 08:56:27;;;;;;;3.22;2.78;;;19.60;99.90;;;;;;5054456;28;20128;-34
2023/09/21 08:58:55;;;;;;;3.85;3.00;;;19.60;99.90;;;;;;5050807;28;20083;-35
2023/09/21 09:01:22;;;;;;;4.07;2.70;;;19.50;99.90;;;;;;5059688;28;20116;-33
2023/09/21 09:03:49;;;;;;;5.10;2.88;;;19.50;99.90;;;;;;5061676;28;20040;-34
2023/09/21 09:06:15;;;;;;;3.70;2.90;;;19.50;99.90;;;;;;5055020;28;20045;-35
2023/09/21 09:08:40;;;;;;;4.88;3.35;;;19.50;99.90;;;;;;5063225;28;20099;-34
2023/09/21 09:11:06;;;;;;;4.80;3.30;;;19.50;99.90;;;;;;5054132;28;20472;-33
2023/09/21 09:13:32;;;;;;;5.07;3.00;;;19.60;99.90;;;;;;5064758;28;20037;-33
2023/09/21 09:16:03;;;;;;;5.55;3.20;;;19.60;99.90;;;;;;5057430;28;20083;-33
2023/09/21 09:18:29;;;;;;;5.82;3.53;;;19.60;99.90;;;;;;5057992;28;20049;-34
2023/09/21 09:20:55;;;;;;;4.57;3.25;;;19.50;99.90;;;;;;5055248;28;20045;-33
2023/09/21 09:23:21;;;;;;;5.25;3.30;;;19.50;99.90;;;;;;5053709;28;20072;-33
2023/09/21 09:25:49;;;;;;;3.90;2.72;;;19.40;99.90;;;;;;5055335;28;20099;-33
2023/09/21 09:28:18;;;;;;;5.00;3.25;;;19.40;99.90;;;;;;5050930;28;20472;-33
2023/09/21 09:30:45;;;;;;;5.13;3.67;;;19.30;99.90;;;;;;5056206;28;20051;-34
2023/09/21 09:33:15;;;;;;;5.03;3.08;;;19.30;99.90;;;;;;5041099;28;20500;-33
2023/09/21 09:35:41;;;;;;;4.55;3.00;;;19.30;99.90;;;;;;5050036;28;20041;-34
2023/09/21 09:38:11;;;;;;;3.90;3.50;;;19.40;99.90;;;;;;5053379;28;20360;-34
2023/09/21 09:40:42;;;;;;;4.72;3.30;;;19.40;99.90;;;;;;5102498;22;20023;-84
2023/09/21 09:43:08;;;;;;;4.20;3.47;;;19.40;99.90;;;;;;5082654;28;20497;-85
2023/09/21 09:45:38;;;;;;;4.28;3.38;;;19.30;99.90;;;;;;5094542;27;21199;-86
2023/09/21 09:48:14;;;;;;;4.90;3.30;;;19.30;99.90;;;;;;5094769;28;20044;-86
2023/09/21 09:50:44;;;;;;;3.65;3.30;;;19.20;99.90;;;;;;5076237;28;20039;-85
2023/09/21 09:53:13;;;;;;;3.78;3.45;;;19.10;99.90;;;;;;5067567;28;20035;-86
2023/09/21 09:55:42;;;;;;;3.75;3.33;;;19.00;99.90;;;;;;5091803;28;20416;-86
2023/09/21 09:58:09;;;;;;;4.60;3.63;;;19.00;99.90;;;;;;5087971;28;20047;-85
2023/09/21 10:00:41;;;;;;;5.38;3.60;;;18.70;99.90;;;;;;5095128;28;20036;-85
2023/09/21 10:03:09;;;;;;;4.35;3.92;;;18.70;99.90;;;;;;5091946;28;20039;-85
2023/09/21 10:05:42;;;;;;;7.53;3.92;;;18.70;99.90;;;;;;5083432;28;20052;-85
2023/09/21 10:08:08;;;;;;;5.13;4.10;;;18.60;99.90;;;;;;5089463;28;20424;-86
2023/09/21 10:10:49;;;;;;;4.63;4.15;;;18.50;99.90;;;;;;5091865;28;20047;-85
2023/09/21 10:13:16;;;;;;;4.25;3.90;;;18.50;99.90;;;;;;5092942;28;20039;-86
2023/09/21 10:15:43;;;;;;;5.03;4.00;;;18.50;99.90;;;;;;5090535;28;20035;-87
2023/09/21 10:18:09;;;;;;;4.30;3.90;;;18.50;99.90;;;;;;5078651;28;20040;-86
2023/09/21 10:20:36;;;;;;;6.13;4.07;;;18.50;99.90;;;;;;5073030;28;20131;-88
2023/09/21 10:23:09;;;;;;;3.85;3.55;;;18.40;99.90;;;;;;5092806;28;20032;-87
2023/09/21 10:25:41;;;;;;;4.28;3.88;;;18.30;99.90;;;;;;5092129;28;20519;-87
2023/09/21 10:28:28;;;;;;;6.10;4.18;;;18.20;99.90;;;;;;5075228;28;20097;-88
2023/09/21 10:30:54;;;;;;;4.38;3.75;;;18.30;99.90;;;;;;5095767;27;20043;-82
2023/09/21 10:33:22;;;;;;;5.22;4.13;;;18.20;99.90;;;;;;5095823;28;20043;-86
2023/09/21 10:35:49;;;;;;;5.40;4.43;;;18.20;99.90;;;;;;5081578;28;20032;-86
2023/09/21 10:38:17;;;;;;;5.35;4.20;;;18.10;99.90;;;;;;5073163;28;20448;-84
2023/09/21 10:40:43;;;;;;;6.50;4.10;;;18.10;99.90;;;;;;5091220;28;20031;-86
2023/09/21 10:43:36;;;;;;;7.13;4.22;;;18.10;99.90;;;;;;5097699;28;20497;-85
2023/09/21 10:46:03;;;;;;;5.40;3.45;;;18.10;99.90;;;;;;5071150;28;20036;-85
2023/09/21 10:48:30;;;;;;;3.67;3.38;;;18.00;99.90;;;;;;5076197;28;20047;-85
2023/09/21 10:50:56;;;;;;;3.90;3.60;;;18.00;99.90;;;;;;5076932;28;20046;-85
2023/09/21 10:53:23;;;;;;;4.40;3.58;;;17.90;99.90;;;;;;5102084;28;20110;-85
2023/09/21 10:55:49;;;;;;;3.65;3.20;;;17.90;99.90;;;;;;5091586;28;20049;-86
2023/09/21 10:58:17;;;;;;;4.55;3.22;;;17.90;99.90;;;;;;5089997;28;20065;-85
2023/09/21 11:00:43;;;;;;;3.67;3.15;;;17.80;99.90;;;;;;5102090;28;20057;-86
2023/09/21 11:03:13;;;;;;;3.22;2.88;;;17.70;99.90;;;;;;5094782;28;20036;-86
2023/09/21 11:05:39;;;;;;;2.50;2.30;;;17.60;99.90;;;;;;5075586;28;20039;-86
2023/09/21 11:08:06;;;;;;;3.58;2.35;;;17.60;99.90;;;;;;5078379;28;20515;-86
2023/09/21 11:10:33;;;;;;;2.33;2.10;;;17.50;99.90;;;;;;5079757;28;20063;-86
2023/09/21 11:12:58;;;;;;;2.88;1.98;;;17.50;99.90;;;;;;5094806;27;20062;-86
2023/09/21 11:15:25;;;;;;;1.90;1.77;;;17.50;99.90;;;;;;5083341;27;20101;-86
2023/09/21 11:17:51;;;;;;;2.45;1.92;;;17.40;99.90;;;;;;5081949;27;20028;-86
2023/09/21 11:20:19;;;;;;;4.18;1.80;;;17.40;99.90;;;;;;5101010;27;20023;-85
2023/09/21 11:22:48;;;;;;;2.63;1.42;;;17.40;99.90;;;;;;5101825;28;20082;-86
2023/09/21 11:25:18;;;;;;;1.38;1.27;;;17.30;99.90;;;;;;5117307;28;20059;-86
2023/09/21 11:27:44;;;;;;;1.25;1.00;;;17.30;99.90;;;;;;5109949;27;20455;-86
2023/09/21 11:30:13;;;;;;;1.73;1.20;;;17.30;99.90;;;;;;5077763;28;20089;-85
2023/09/21 11:32:50;;;;;;;2.30;1.10;;;17.40;99.90;;;;;;5077798;28;20041;-85
2023/09/21 11:35:16;;;;;;;1.20;1.10;;;17.50;99.90;;;;;;5090535;28;20039;-86
2023/09/21 11:37:43;;;;;;;1.30;1.20;;;17.60;99.90;;;;;;5091980;27;20081;-85
2023/09/21 11:40:13;;;;;;;1.48;1.35;;;17.80;99.90;;;;;;5080274;27;20031;-86
2023/09/21 11:42:43;;;;;;;1.92;1.83;;;17.80;99.90;;;;;;5076272;28;20435;-86
2023/09/21 11:45:16;;;;;;;2.28;1.75;;;17.90;99.90;;;;;;5094030;28;20040;-86
2023/09/21 11:47:46;;;;;;;2.30;2.10;;;18.00;99.90;;;;;;5087824;27;20122;-86
2023/09/21 11:50:18;;;;;;;2.80;2.00;;;18.00;99.90;;;;;;5091376;28;20075;-86
2023/09/21 11:52:44;;;;;;;2.63;2.40;;;18.10;99.90;;;;;;5077308;27;20047;-85
2023/09/21 11:55:11;;;;;;;4.43;2.58;;;18.40;99.90;;;;;;5081148;28;20031;-85
2023/09/21 11:57:37;;;;;;;2.92;2.53;;;18.80;99.90;;;;;;5092947;28;20096;-86
2023/09/21 12:00:15;;;;;;;2.40;2.20;;;19.20;99.90;;;;;;5092245;28;20050;-86
2023/09/21 12:02:43;;;;;;;2.50;2.17;;;19.30;99.90;;;;;;5081340;28;20063;-85
2023/09/21 12:05:11;;;;;;;3.22;2.38;;;19.40;99.90;;;;;;5070904;28;20027;-85
2023/09/21 12:07:37;;;;;;;2.78;1.98;;;19.50;99.90;;;;;;5074894;28;21156;-85
2023/09/21 12:10:07;;;;;;;2.17;2.00;;;19.40;99.90;;;;;;5072060;28;20040;-85
2023/09/21 12:12:33;;;;;;;2.13;1.88;;;19.30;99.90;;;;;;5080214;28;20119;-86
2023/09/21 12:14:58;;;;;;;2.30;2.10;;;19.20;99.90;;;;;;5097145;28;20122;-86
2023/09/21 12:17:26;;;;;;;2.22;1.52;;;19.00;99.90;;;;;;5094782;28;20098;-86
2023/09/21 12:19:53;;;;;;;1.70;1.60;;;18.70;99.90;;;;;;5096674;28;20328;-85
2023/09/21 12:22:18;;;;;;;1.70;1.60;;;18.60;99.90;;;;;;5077567;28;20044;-86
2023/09/21 12:24:44;;;;;;;3.40;1.80;;;18.50;99.90;;;;;;5088587;28;20122;-85
2023/09/21 12:27:10;;;;;;;1.13;1.02;;;18.40;99.90;;;;;;5075171;28;20034;-86
2023/09/21 12:29:36;;;;;;;1.40;1.10;;;18.20;99.90;;;;;;5074769;28;20403;-85
2023/09/21 12:32:04;;;;;;;1.83;1.02;;;18.10;99.90;;;;;;5089639;28;20038;-85
2023/09/21 12:34:31;;;;;;;1.48;1.30;;;17.90;99.90;;;;;;5076952;28;20040;-85
2023/09/21 12:36:57;;;;;;;2.17;1.10;;;17.80;99.90;;;;;;5077312;28;20028;-86
2023/09/21 12:39:24;;;;;;;1.00;0.90;;;17.70;99.90;;;;;;5095608;28;20086;-85
2023/09/21 12:41:50;;;;;;;1.25;0.98;;;17.60;99.90;;;;;;5077191;28;20088;-86
2023/09/21 12:44:16;;;;;;;1.95;0.73;;;17.50;99.90;;;;;;5096528;28;20040;-85
2023/09/21 12:46:42;;;;;;;1.48;0.90;;;17.40;99.90;;;;;;5094256;28;20052;-85
2023/09/21 12:49:07;;;;;;;1.55;0.80;;;17.30;99.90;;;;;;5095603;28;20038;-85
2023/09/21 12:51:34;;;;;;;1.40;0.80;;;17.20;99.90;;;;;;5094587;28;20043;-85
2023/09/21 12:54:01;;;;;;;1.10;0.80;;;17.10;99.90;;;;;;5078922;28;20139;-85
2023/09/21 12:56:27;;;;;;;0.70;0.70;;;17.10;99.90;;;;;;5079763;28;20031;-85
2023/09/21 12:58:58;;;;;;;0.70;0.65;;;17.10;99.90;;;;;;5076308;28;20040;-85
2023/09/21 13:01:24;;;;;;;1.10;0.60;;;17.10;99.90;;;;;;5075465;28;20077;-85
2023/09/21 13:03:50;;;;;;;0.80;0.60;;;17.10;99.90;;;;;;5091619;28;20040;-85
2023/09/21 13:06:16;;;;;;;2.15;0.88;;;17.00;99.90;;;;;;5094878;28;20130;-85
2023/09/21 13:08:42;;;;;;;1.17;0.75;;;17.20;99.90;;;;;;5082593;28;20042;-85
2023/09/21 13:11:07;;;;;;;1.20;0.90;;;17.40;99.90;;;;;;5095322;28;20085;-85
2023/09/21 13:13:36;;;;;;;1.50;0.85;;;17.50;99.90;;;;;;5098778;28;20043;-85